Terminal Aerodrome Forecast
Issued by NWS Boston, MA

Home | Current Version | Previous Version | Text Only | Print | Product List | Glossary Off
Versions: 1 2 3 4 5 6 7 8 9 10 11 12 13 14 15 16 17 18 19 20 21
000 FTUS41 KBOX 251735 TAFPVD TAF KPVD 251735Z 2518/2618 13013G20KT 2SM +RA BR OVC003 FM252000 12013G20KT 1SM +RA BR OVC003 WS020/18045KT FM260100 16010KT 1/2SM -SHRA FG OVC003 WS020/18045KT FM260600 22005KT 1/2SM FG OVC003 FM261300 25012KT P6SM SCT070=

USA.gov is the U.S. government's official web portal to all federal, state and local government web resources and services.